createdAt,value
2019-05-22T00:01:16.090Z,30.60
2019-05-22T00:04:07.942Z,34.00
2019-05-22T00:06:43.802Z,41.37
2019-05-22T00:09:23.236Z,32.42
2019-05-22T00:11:59.429Z,32.28
2019-05-22T00:14:33.526Z,35.73
2019-05-22T00:17:09.814Z,37.08
2019-05-22T00:19:45.262Z,33.02
2019-05-22T00:22:26.852Z,36.30
2019-05-22T00:25:01.898Z,37.73
2019-05-22T00:27:37.830Z,40.98
2019-05-22T00:30:17.207Z,40.58
2019-05-22T00:32:51.445Z,35.83
2019-05-22T00:35:27.942Z,38.20
2019-05-22T00:38:03.674Z,38.08
2019-05-22T00:40:45.687Z,37.58
2019-05-22T00:43:18.974Z,37.45
2019-05-22T00:45:54.951Z,38.48
2019-05-22T00:48:30.727Z,42.83
2019-05-22T00:51:24.390Z,41.25
2019-05-22T00:54:22.806Z,42.05
2019-05-22T00:57:16.008Z,43.78
2019-05-22T00:59:51.561Z,40.48
2019-05-22T01:02:28.266Z,42.93
2019-05-22T01:05:02.455Z,41.33
2019-05-22T01:07:43.424Z,46.23
2019-05-22T01:10:18.869Z,41.50
2019-05-22T01:12:57.260Z,40.75
2019-05-22T01:15:32.321Z,37.95
2019-05-22T01:18:11.155Z,43.00
2019-05-22T01:20:47.276Z,39.10
2019-05-22T01:23:22.190Z,37.75
2019-05-22T01:25:57.557Z,37.88
2019-05-22T01:28:30.772Z,37.73
2019-05-22T01:31:11.747Z,36.93
2019-05-22T01:33:54.486Z,39.40
2019-05-22T01:36:59.068Z,37.98
2019-05-22T01:39:47.955Z,34.88
2019-05-22T01:42:27.998Z,34.43
2019-05-22T01:45:06.565Z,32.33
2019-05-22T01:48:01.227Z,36.73
2019-05-22T01:50:55.671Z,33.85
2019-05-22T01:53:36.811Z,33.67
2019-05-22T01:56:12.993Z,31.55
2019-05-22T01:58:48.584Z,32.20
2019-05-22T02:01:23.958Z,35.75
2019-05-22T02:03:59.113Z,32.03
2019-05-22T02:06:34.525Z,35.28
2019-05-22T02:09:34.075Z,34.38
2019-05-22T02:12:37.963Z,34.70
2019-05-22T02:15:13.620Z,34.27
2019-05-22T02:17:50.286Z,34.60
2019-05-22T02:20:25.010Z,37.03
2019-05-22T02:22:58.875Z,35.45
2019-05-22T02:25:34.931Z,32.53
2019-05-22T02:28:10.797Z,37.15
2019-05-22T02:30:47.313Z,31.80
2019-05-22T02:33:22.695Z,38.58
2019-05-22T02:35:57.666Z,36.10
2019-05-22T02:38:32.611Z,33.40
2019-05-22T02:41:09.253Z,32.55
2019-05-22T02:43:44.102Z,36.45
2019-05-22T02:46:19.235Z,35.35
2019-05-22T02:48:52.755Z,32.23
2019-05-22T02:51:27.088Z,37.17
2019-05-22T02:54:02.633Z,37.35
2019-05-22T02:56:37.512Z,34.30
2019-05-22T02:59:13.253Z,34.43
2019-05-22T03:01:47.835Z,38.08
2019-05-22T03:04:23.309Z,34.83
2019-05-22T03:06:59.138Z,40.67
2019-05-22T03:09:34.685Z,35.48
2019-05-22T03:12:13.770Z,35.05
2019-05-22T03:14:49.369Z,32.50
2019-05-22T03:17:31.985Z,33.50
2019-05-22T03:20:12.823Z,33.15
2019-05-22T03:23:22.994Z,32.80
2019-05-22T03:25:57.406Z,32.80
2019-05-22T03:28:32.640Z,31.62
2019-05-22T03:31:06.374Z,37.25
2019-05-22T03:33:40.393Z,31.85
2019-05-22T03:36:21.574Z,31.20
2019-05-22T03:38:56.269Z,30.30
2019-05-22T03:41:30.826Z,29.67
2019-05-22T03:44:05.944Z,29.52
2019-05-22T03:46:47.037Z,26.87
2019-05-22T03:49:31.182Z,28.92
2019-05-22T03:51:59.330Z,30.97
2019-05-22T03:54:33.828Z,27.55
2019-05-22T03:57:08.347Z,26.60
2019-05-22T03:59:43.299Z,27.62
2019-05-22T04:02:17.346Z,23.42
2019-05-22T04:04:52.728Z,19.67
2019-05-22T04:07:29.191Z,20.50
2019-05-22T04:10:06.237Z,21.55
2019-05-22T04:12:40.845Z,23.12
2019-05-22T04:15:15.054Z,20.35
2019-05-22T04:17:51.448Z,21.52
2019-05-22T04:20:26.552Z,22.85
2019-05-22T04:23:01.469Z,22.50
2019-05-22T04:25:35.781Z,19.87
2019-05-22T04:28:08.788Z,22.15
2019-05-22T04:30:43.184Z,18.42
2019-05-22T04:33:19.378Z,18.25
2019-05-22T04:35:53.188Z,20.02
2019-05-22T04:38:28.869Z,16.07
2019-05-22T04:41:04.293Z,16.15
2019-05-22T04:43:38.920Z,15.28
2019-05-22T04:46:13.162Z,15.40
2019-05-22T04:48:46.725Z,16.75
2019-05-22T04:51:40.006Z,14.83
2019-05-22T04:54:13.902Z,18.77
2019-05-22T04:56:48.857Z,17.32
2019-05-22T04:59:23.660Z,18.95
2019-05-22T05:01:58.281Z,18.00
2019-05-22T05:04:32.390Z,16.55
2019-05-22T05:07:07.502Z,19.20
2019-05-22T05:09:45.672Z,16.05
2019-05-22T05:12:19.229Z,16.70
2019-05-22T05:14:52.565Z,21.37
2019-05-22T05:17:26.015Z,16.75
2019-05-22T05:19:58.809Z,19.77
2019-05-22T05:22:47.155Z,19.62
2019-05-22T05:25:21.232Z,19.23
2019-05-22T05:27:56.054Z,22.32
2019-05-22T05:30:30.862Z,19.32
2019-05-22T05:33:04.343Z,19.00
2019-05-22T05:35:40.028Z,21.42
2019-05-22T05:38:16.325Z,19.15
2019-05-22T05:40:49.557Z,21.48
2019-05-22T05:43:23.744Z,20.90
2019-05-22T05:45:58.645Z,20.82
2019-05-22T05:48:33.699Z,17.80
2019-05-22T05:51:45.982Z,17.07
2019-05-22T05:54:23.653Z,20.12
2019-05-22T05:56:59.184Z,18.42
2019-05-22T05:59:33.709Z,20.68
2019-05-22T06:02:08.666Z,22.65
2019-05-22T06:04:43.566Z,21.57
2019-05-22T06:07:27.283Z,20.20
2019-05-22T06:11:02.922Z,18.05
2019-05-22T06:13:36.881Z,17.25
2019-05-22T06:17:12.105Z,20.32
2019-05-22T06:19:48.969Z,17.05
2019-05-22T06:22:24.012Z,20.62
2019-05-22T06:25:06.957Z,17.30
2019-05-22T06:27:50.529Z,17.75
2019-05-22T06:30:46.636Z,18.80
2019-05-22T06:33:35.662Z,17.80
2019-05-22T06:36:15.438Z,18.90
2019-05-22T06:39:00.463Z,17.07
2019-05-22T06:41:36.482Z,19.40
2019-05-22T06:44:43.851Z,16.05
2019-05-22T06:47:21.560Z,15.93
2019-05-22T06:49:57.126Z,13.95
2019-05-22T06:52:29.734Z,15.32
2019-05-22T06:55:04.943Z,13.62
2019-05-22T06:57:38.583Z,16.80
2019-05-22T07:00:24.167Z,14.55
2019-05-22T07:02:57.874Z,9.40
2019-05-22T07:05:31.885Z,11.60
2019-05-22T07:08:06.147Z,10.53
2019-05-22T07:10:42.275Z,10.20
2019-05-22T07:13:17.124Z,11.55
2019-05-22T07:15:52.678Z,11.48
2019-05-22T07:18:31.900Z,10.28
2019-05-22T07:21:07.356Z,8.03
2019-05-22T07:23:42.511Z,8.50
2019-05-22T07:26:16.919Z,8.10
2019-05-22T07:28:51.411Z,8.93
2019-05-22T07:31:25.382Z,10.68
2019-05-22T07:34:00.270Z,8.10
2019-05-22T07:36:35.405Z,11.55
2019-05-22T07:39:10.690Z,7.62
2019-05-22T07:41:43.438Z,6.72
2019-05-22T07:44:17.241Z,8.98
2019-05-22T07:46:50.158Z,9.63
2019-05-22T07:49:23.679Z,10.68
2019-05-22T07:52:01.600Z,7.25
2019-05-22T07:54:31.676Z,7.87
2019-05-22T07:57:05.356Z,6.67
2019-05-22T07:59:38.390Z,8.30
2019-05-22T08:02:14.305Z,9.60
2019-05-22T08:04:48.129Z,7.75
2019-05-22T08:07:24.682Z,8.35
2019-05-22T08:09:57.924Z,6.67
2019-05-22T08:12:32.396Z,6.10
2019-05-22T08:15:07.193Z,5.75
2019-05-22T08:17:41.622Z,6.10
2019-05-22T08:20:14.923Z,5.60
2019-05-22T08:22:49.176Z,8.40
2019-05-22T08:25:21.567Z,11.30
2019-05-22T08:27:58.666Z,3.00
2019-05-22T08:30:32.303Z,4.95
2019-05-22T08:33:10.650Z,3.90
2019-05-22T08:35:44.312Z,5.10
2019-05-22T08:38:17.526Z,7.05
2019-05-22T08:40:53.050Z,4.58
2019-05-22T08:43:26.053Z,3.02
2019-05-22T08:46:00.090Z,4.87
2019-05-22T08:48:35.514Z,3.75
2019-05-22T08:51:09.874Z,3.15
2019-05-22T08:53:47.985Z,7.58
2019-05-22T08:56:20.210Z,2.77
2019-05-22T08:58:55.016Z,12.20
2019-05-22T09:01:29.081Z,2.47
2019-05-22T09:04:02.606Z,3.65
2019-05-22T09:06:35.182Z,4.33
2019-05-22T09:09:08.994Z,3.58
2019-05-22T09:11:41.452Z,3.25
2019-05-22T09:14:14.874Z,3.70
2019-05-22T09:16:48.903Z,3.85
2019-05-22T09:19:21.362Z,3.33
2019-05-22T09:21:54.920Z,2.40
2019-05-22T09:24:28.892Z,3.72
2019-05-22T09:27:02.889Z,4.50
2019-05-22T09:29:35.139Z,3.37
2019-05-22T09:32:09.230Z,2.58
2019-05-22T09:34:42.521Z,6.12
2019-05-22T09:37:16.791Z,5.25
2019-05-22T09:39:50.817Z,3.72
2019-05-22T09:42:25.044Z,4.37
2019-05-22T09:44:58.298Z,3.37
2019-05-22T09:47:32.951Z,3.67
2019-05-22T09:50:06.864Z,3.05
2019-05-22T09:52:56.361Z,1.77
2019-05-22T09:55:17.656Z,3.60
2019-05-22T09:57:51.275Z,3.20
2019-05-22T10:00:25.711Z,4.53
2019-05-22T10:03:00.031Z,4.42
2019-05-22T10:05:35.205Z,9.25
2019-05-22T10:08:09.354Z,5.87
2019-05-22T10:10:43.240Z,5.05
2019-05-22T10:13:18.053Z,1.57
2019-05-22T10:15:52.531Z,3.12
2019-05-22T10:18:27.240Z,3.65
2019-05-22T10:21:00.715Z,2.40
2019-05-22T10:23:34.177Z,6.25
2019-05-22T10:26:08.304Z,6.75
2019-05-22T10:28:41.965Z,2.45
2019-05-22T10:31:17.290Z,3.15
2019-05-22T10:33:52.016Z,5.03
2019-05-22T10:36:26.118Z,2.50
2019-05-22T10:39:00.777Z,2.47
2019-05-22T10:41:34.673Z,4.45
2019-05-22T10:44:08.297Z,3.15
2019-05-22T10:46:43.246Z,3.65
2019-05-22T10:49:16.728Z,1.85
2019-05-22T10:51:51.595Z,1.92
2019-05-22T10:54:25.407Z,1.95
2019-05-22T10:56:59.727Z,2.62
2019-05-22T10:59:33.084Z,2.40
2019-05-22T11:02:06.958Z,4.47
2019-05-22T11:04:42.104Z,3.47
2019-05-22T11:07:15.976Z,2.80
2019-05-22T11:09:51.638Z,4.10
2019-05-22T11:12:26.132Z,2.72
2019-05-22T11:14:59.405Z,2.27
2019-05-22T11:17:33.371Z,2.62
2019-05-22T11:20:08.174Z,1.80
2019-05-22T11:22:42.926Z,1.62
2019-05-22T11:25:17.270Z,2.45
2019-05-22T11:27:51.246Z,2.42
2019-05-22T11:30:24.968Z,2.47
2019-05-22T11:32:59.662Z,2.25
2019-05-22T11:35:34.789Z,2.72
2019-05-22T11:38:09.446Z,7.50
2019-05-22T11:40:44.061Z,2.12
2019-05-22T11:43:18.279Z,3.50
2019-05-22T11:45:52.070Z,4.17
2019-05-22T11:48:26.014Z,6.67
2019-05-22T11:51:00.979Z,6.67
2019-05-22T11:53:35.067Z,2.72
2019-05-22T11:56:08.970Z,3.80
2019-05-22T11:58:42.518Z,2.95
2019-05-22T12:01:15.439Z,5.30
2019-05-22T12:03:49.240Z,3.20
2019-05-22T12:06:22.105Z,3.92
2019-05-22T12:08:56.074Z,1.92
2019-05-22T12:11:29.099Z,3.35
2019-05-22T12:14:03.005Z,3.95
2019-05-22T12:16:36.664Z,1.90
2019-05-22T12:19:09.860Z,1.50
2019-05-22T12:21:42.791Z,2.40
2019-05-22T12:24:27.105Z,3.00
2019-05-22T12:26:51.020Z,2.27
2019-05-22T12:29:24.452Z,3.60
2019-05-22T12:31:57.654Z,6.60
2019-05-22T12:34:30.619Z,2.92
2019-05-22T12:37:03.632Z,2.33
2019-05-22T12:39:38.322Z,2.30
2019-05-22T12:42:14.061Z,4.67
2019-05-22T12:44:47.058Z,2.42
2019-05-22T12:47:21.562Z,4.55
2019-05-22T12:49:55.760Z,1.70
2019-05-22T12:52:29.856Z,2.30
2019-05-22T12:55:03.154Z,2.70
2019-05-22T12:57:36.512Z,3.27
2019-05-22T13:00:11.989Z,1.80
2019-05-22T13:02:46.600Z,2.17
2019-05-22T13:05:20.393Z,2.30
2019-05-22T13:07:54.302Z,1.60
2019-05-22T13:10:29.350Z,1.82
2019-05-22T13:13:06.202Z,12.55
2019-05-22T13:15:40.624Z,4.67
2019-05-22T13:18:16.397Z,2.05
2019-05-22T13:20:52.177Z,6.03
2019-05-22T13:23:29.192Z,3.40
2019-05-22T13:26:03.148Z,5.22
2019-05-22T13:28:38.813Z,10.55
2019-05-22T13:31:12.847Z,1.65
2019-05-22T13:33:46.882Z,8.95
2019-05-22T13:36:23.029Z,5.55
2019-05-22T13:38:55.619Z,2.90
2019-05-22T13:41:29.916Z,4.40
2019-05-22T13:44:06.516Z,2.17
2019-05-22T13:46:38.867Z,2.37
2019-05-22T13:49:11.461Z,2.35
2019-05-22T13:51:44.096Z,1.10
2019-05-22T13:54:17.152Z,2.33
2019-05-22T13:56:50.598Z,2.05
2019-05-22T13:59:23.927Z,1.30
2019-05-22T14:01:58.766Z,2.35
2019-05-22T14:04:31.634Z,2.12
2019-05-22T14:07:06.789Z,3.85
2019-05-22T14:09:41.760Z,2.42
2019-05-22T14:12:16.351Z,1.27
2019-05-22T14:14:50.311Z,2.55
2019-05-22T14:17:24.421Z,1.25
2019-05-22T14:19:58.236Z,1.22
2019-05-22T14:22:32.333Z,1.42
2019-05-22T14:25:06.168Z,2.65
2019-05-22T14:27:42.034Z,2.67
2019-05-22T14:30:16.879Z,1.42
2019-05-22T14:32:50.192Z,2.08
2019-05-22T14:35:25.886Z,1.22
2019-05-22T14:38:00.456Z,4.65
2019-05-22T14:40:36.304Z,2.40
2019-05-22T14:43:10.668Z,1.35
2019-05-22T14:45:46.305Z,4.58
2019-05-22T14:48:20.755Z,3.62
2019-05-22T14:50:54.613Z,3.00
2019-05-22T14:53:29.307Z,1.85
2019-05-22T14:56:03.942Z,2.45
2019-05-22T14:58:37.328Z,1.72
2019-05-22T15:01:11.419Z,1.10
2019-05-22T15:03:45.365Z,1.87
2019-05-22T15:06:20.776Z,4.58
2019-05-22T15:08:54.892Z,2.92
2019-05-22T15:11:28.884Z,3.90
2019-05-22T15:14:03.049Z,6.85
2019-05-22T15:16:37.600Z,10.58
2019-05-22T15:19:11.856Z,11.97
2019-05-22T15:21:45.796Z,12.10
2019-05-22T15:24:20.393Z,17.27
2019-05-22T15:26:54.771Z,14.03
2019-05-22T15:29:29.187Z,16.77
2019-05-22T15:32:04.237Z,13.58
2019-05-22T15:34:40.911Z,11.83
2019-05-22T15:37:20.138Z,14.53
2019-05-22T15:39:54.593Z,15.38
2019-05-22T15:42:45.055Z,16.52
2019-05-22T15:45:23.566Z,16.37
2019-05-22T15:48:01.717Z,18.85
2019-05-22T15:50:35.365Z,17.85
2019-05-22T15:53:15.140Z,21.90
2019-05-22T15:55:49.989Z,16.05
2019-05-22T15:58:25.906Z,15.32
2019-05-22T16:01:01.317Z,15.00
2019-05-22T16:03:35.731Z,11.75
2019-05-22T16:06:11.424Z,5.05
2019-05-22T16:08:45.710Z,5.65
2019-05-22T16:11:20.720Z,4.10
2019-05-22T16:13:57.795Z,4.67
2019-05-22T16:16:32.850Z,4.05
2019-05-22T16:19:12.500Z,3.65
2019-05-22T16:21:51.016Z,3.45
2019-05-22T16:24:25.315Z,5.72
2019-05-22T16:26:58.936Z,4.55
2019-05-22T16:29:36.943Z,2.47
2019-05-22T16:32:14.901Z,4.70
2019-05-22T16:34:50.007Z,2.67
2019-05-22T16:37:26.257Z,2.47
2019-05-22T16:40:01.293Z,1.75
2019-05-22T16:42:36.578Z,2.17
2019-05-22T16:45:11.558Z,2.65
2019-05-22T16:47:46.366Z,3.60
2019-05-22T16:50:21.009Z,2.33
2019-05-22T16:52:55.426Z,4.05
2019-05-22T16:55:30.351Z,3.80
2019-05-22T16:58:04.777Z,2.90
2019-05-22T17:00:39.439Z,4.20
2019-05-22T17:03:14.276Z,3.58
2019-05-22T17:05:47.724Z,2.55
2019-05-22T17:08:23.705Z,2.50
2019-05-22T17:10:59.302Z,3.20
2019-05-22T17:13:35.827Z,3.08
2019-05-22T17:16:10.879Z,2.30
2019-05-22T17:18:47.993Z,3.05
2019-05-22T17:21:20.787Z,2.42
2019-05-22T17:23:54.657Z,1.95
2019-05-22T17:26:27.912Z,1.80
2019-05-22T17:29:01.482Z,3.75
2019-05-22T17:31:35.248Z,2.72
2019-05-22T17:34:28.035Z,3.10
2019-05-22T17:37:03.343Z,4.65
2019-05-22T17:39:38.596Z,6.12
2019-05-22T17:42:14.327Z,3.33
2019-05-22T17:44:51.077Z,4.25
2019-05-22T17:47:27.205Z,4.00
2019-05-22T17:50:02.444Z,2.92
2019-05-22T17:52:35.611Z,4.30
2019-05-22T17:55:10.193Z,4.33
2019-05-22T17:57:43.963Z,2.62
2019-05-22T18:00:38.528Z,4.00
2019-05-22T18:03:11.299Z,3.67
2019-05-22T18:05:45.098Z,2.85
2019-05-22T18:08:18.377Z,3.10
2019-05-22T18:10:54.242Z,2.72
2019-05-22T18:13:28.881Z,3.77
2019-05-22T18:16:04.769Z,3.27
2019-05-22T18:18:38.508Z,3.60
2019-05-22T18:21:12.750Z,2.87
2019-05-22T18:23:47.211Z,1.77
2019-05-22T18:26:21.947Z,4.53
2019-05-22T18:28:56.264Z,2.27
2019-05-22T18:31:28.725Z,3.40
2019-05-22T18:34:01.570Z,2.35
2019-05-22T18:36:34.150Z,2.67
2019-05-22T18:39:09.708Z,2.83
2019-05-22T18:41:43.678Z,3.37
2019-05-22T18:44:17.946Z,2.98
2019-05-22T18:46:51.784Z,2.60
2019-05-22T18:49:25.923Z,3.15
2019-05-22T18:52:00.633Z,7.25
2019-05-22T18:54:34.727Z,2.83
2019-05-22T18:57:08.593Z,1.87
2019-05-22T18:59:42.461Z,3.00
2019-05-22T19:02:16.104Z,3.67
2019-05-22T19:04:49.062Z,5.12
2019-05-22T19:07:21.931Z,3.60
2019-05-22T19:09:55.042Z,3.80
2019-05-22T19:12:28.539Z,2.35
2019-05-22T19:15:01.330Z,3.33
2019-05-22T19:17:34.410Z,2.42
2019-05-22T19:20:07.278Z,2.47
2019-05-22T19:22:58.063Z,2.47
2019-05-22T19:25:15.749Z,2.98
2019-05-22T19:27:49.629Z,2.45
2019-05-22T19:30:24.348Z,2.35
2019-05-22T19:32:57.047Z,4.53
2019-05-22T19:35:29.081Z,3.10
2019-05-22T19:38:02.318Z,1.98
2019-05-22T19:40:36.245Z,2.40
2019-05-22T19:43:09.760Z,3.30
2019-05-22T19:45:43.279Z,2.50
2019-05-22T19:48:16.317Z,4.00
2019-05-22T19:50:49.694Z,2.83
2019-05-22T19:53:23.357Z,3.35
2019-05-22T19:55:56.726Z,5.53
2019-05-22T19:58:30.408Z,2.40
2019-05-22T20:01:03.585Z,2.05
2019-05-22T20:03:38.001Z,3.12
2019-05-22T20:06:11.783Z,3.67
2019-05-22T20:08:45.682Z,6.22
2019-05-22T20:11:19.434Z,3.83
2019-05-22T20:13:52.359Z,3.05
2019-05-22T20:16:25.767Z,4.17
2019-05-22T20:18:59.711Z,2.80
2019-05-22T20:21:32.707Z,4.55
2019-05-22T20:24:08.250Z,5.28
2019-05-22T20:26:40.755Z,3.98
2019-05-22T20:29:17.843Z,3.52
2019-05-22T20:31:50.604Z,3.45
2019-05-22T20:34:23.804Z,4.17
2019-05-22T20:36:57.738Z,3.55
2019-05-22T20:39:31.589Z,4.03
2019-05-22T20:42:05.205Z,3.55
2019-05-22T20:44:40.290Z,3.45
2019-05-22T20:47:17.312Z,4.35
2019-05-22T20:49:49.934Z,3.67
2019-05-22T20:52:26.068Z,3.20
2019-05-22T20:55:02.227Z,5.67
2019-05-22T20:57:36.361Z,3.67
2019-05-22T21:00:11.968Z,4.35
2019-05-22T21:02:45.684Z,4.53
2019-05-22T21:05:22.303Z,3.67
2019-05-22T21:08:00.530Z,4.47
2019-05-22T21:10:35.395Z,3.12
2019-05-22T21:13:10.686Z,2.70
2019-05-22T21:15:45.407Z,3.85
2019-05-22T21:18:21.754Z,2.83
2019-05-22T21:20:56.682Z,5.30
2019-05-22T21:23:31.790Z,4.05
2019-05-22T21:26:07.493Z,2.17
2019-05-22T21:28:41.815Z,4.50
2019-05-22T21:31:17.232Z,2.77
2019-05-22T21:33:50.701Z,4.65
2019-05-22T21:36:25.664Z,3.27
2019-05-22T21:39:00.785Z,5.17
2019-05-22T21:41:34.544Z,3.95
2019-05-22T21:44:09.976Z,4.62
2019-05-22T21:46:44.516Z,4.00
2019-05-22T21:49:20.204Z,6.08
2019-05-22T21:51:54.955Z,5.55
2019-05-22T21:54:29.302Z,5.25
2019-05-22T21:57:03.205Z,5.50
2019-05-22T21:59:37.551Z,7.08
2019-05-22T22:02:25.212Z,5.25
2019-05-22T22:04:59.327Z,7.45
2019-05-22T22:07:33.557Z,6.33
2019-05-22T22:10:07.827Z,5.95
2019-05-22T22:12:42.405Z,6.55
2019-05-22T22:15:15.424Z,7.15
2019-05-22T22:17:49.486Z,7.78
2019-05-22T22:20:24.234Z,5.92
2019-05-22T22:22:59.094Z,5.30
2019-05-22T22:25:33.156Z,6.55
2019-05-22T22:28:06.686Z,7.12
2019-05-22T22:30:47.037Z,5.47
2019-05-22T22:33:25.054Z,5.60
2019-05-22T22:35:59.266Z,5.37
2019-05-22T22:38:35.755Z,5.85
2019-05-22T22:41:13.021Z,4.87
2019-05-22T22:43:49.565Z,7.15
2019-05-22T22:46:40.783Z,7.90
2019-05-22T22:49:19.337Z,6.08
2019-05-22T22:51:54.176Z,8.53
2019-05-22T22:54:28.656Z,6.10
2019-05-22T22:57:03.748Z,5.58
2019-05-22T22:59:38.481Z,5.78
2019-05-22T23:02:17.497Z,6.80
2019-05-22T23:04:52.787Z,5.15
2019-05-22T23:07:28.161Z,5.80
2019-05-22T23:10:02.807Z,5.53
2019-05-22T23:12:39.878Z,8.50
2019-05-22T23:15:18.284Z,5.58
2019-05-22T23:17:53.743Z,5.12
2019-05-22T23:20:22.439Z,6.65
2019-05-22T23:22:52.632Z,5.87
2019-05-22T23:25:27.184Z,7.42
2019-05-22T23:28:03.189Z,5.35
2019-05-22T23:30:37.865Z,8.25
2019-05-22T23:33:11.565Z,7.28
2019-05-22T23:35:45.631Z,6.03
2019-05-22T23:38:19.766Z,5.83
2019-05-22T23:40:55.420Z,5.90
2019-05-22T23:43:30.318Z,7.10
2019-05-22T23:46:04.283Z,5.40
2019-05-22T23:48:38.762Z,5.75
2019-05-22T23:51:13.674Z,9.35
2019-05-22T23:53:48.834Z,7.12
2019-05-22T23:56:23.705Z,6.08
2019-05-22T23:58:59.118Z,6.37
